Nearby METAR Reports

Aktualna pogoda na lotniskach (dane METAR)

 

EPGD - Gdansk/Rebiechow, Poland
Distance from station: ENE 27mi, 44km
Updated: Mon, 01-Jun-2020 8:30am PDT
Clear
Clear
 Wind from N
Wind: N 14 mph , 22 km/h
Temperature: 64°F , 18°C
Dew Point: 43°F , 6°C
Humidity: 46%
Barometer: 30.15 inHg , 1021 hPa
Summary: Clear
Visibility: greater than 7 miles , 10 km
2020/06/01 15:30 EPGD 011530Z 35012KT CAVOK 18/06 Q1021
EPSC - Szczecin/Golenio, Poland
Distance from station: WSW 128mi, 205km
Updated: Mon, 01-Jun-2020 8:30am PDT
Clear
Clear
 Wind from NNE
Wind: NNE 13 mph , 20 km/h
Temperature: 68°F , 20°C
Dew Point: 41°F , 5°C
Humidity: 38%
Barometer: 30.21 inHg , 1023 hPa
Summary: Clear
Visibility: greater than 7 miles , 10 km
2020/06/01 15:30 EPSC 011530Z 03011KT 350V080 CAVOK 20/05 Q1023
 
EPPO - Poznan/Lawica, Poland
Distance from station: SSW 131mi, 210km
Updated: Mon, 01-Jun-2020 8:30am PDT
Clear
Clear
 Wind from NE
Wind: NE 13 mph , 20 km/h
Temperature: 72°F , 22°C
Dew Point: 39°F , 4°C
Humidity: 31%
Barometer: 30.15 inHg , 1021 hPa
Summary: Clear
Visibility: greater than 7 miles , 10 km
2020/06/01 15:30 EPPO 011530Z 04011KT CAVOK 22/04 Q1021
EPLL - Lodz/Lublinek, Poland
Distance from station: SSE 184mi, 296km
Updated: Mon, 01-Jun-2020 8:30am PDT
Clear
Clear
 Wind from N
Wind: N 14 mph , 22 km/h, Gust: 26 mph , 43 km/h
Temperature: 66°F , 19°C
Dew Point: 37°F , 3°C
Humidity: 35%
Barometer: 30.09 inHg , 1019 hPa
Summary: Clear
Visibility: greater than 7 miles , 10 km
2020/06/01 15:30 EPLL 011530Z 36012G23KT 320V050 CAVOK 19/03 Q1019
 
EPWA - Warsaw/Okecie, Poland
Distance from station: SE 191mi, 307km
Updated: Mon, 01-Jun-2020 8:30am PDT
Clear
Clear
 Wind from NNE
Wind: NNE 15 mph , 24 km/h
Temperature: 66°F , 19°C
Dew Point: 36°F , 2°C
Humidity: 32%
Barometer: 30.06 inHg , 1018 hPa
Summary: Clear
Visibility: greater than 7 miles , 10 km
2020/06/01 15:30 EPWA 011530Z 03013KT 360V060 CAVOK 19/02 Q1018 NOSIG
EPWR - Wroclaw/Strachow, Poland
Distance from station: S 219mi, 352km
Updated: Mon, 01-Jun-2020 8:30am PDT
Clear
Clear
 Wind from NNE
Wind: NNE 15 mph , 24 km/h
Temperature: 70°F , 21°C
Dew Point: 37°F , 3°C
Humidity: 31%
Barometer: 30.09 inHg , 1019 hPa
Summary: Clear
Visibility: greater than 7 miles , 10 km
2020/06/01 15:30 EPWR 011530Z 02013KT CAVOK 21/03 Q1019

Metar display script from Saratoga-Weather.org